Time,TemperatureF,DewpointF,PressureIn,WindDirection,WindDirectionDegrees,WindSpeedMPH,WindSpeedGustMPH,Humidity,HourlyPrecipIn,Conditions,Clouds,dailyrainin,SoftwareType,DateUTC
2013-05-20 00:09:00,65.5,64.9,30.05,South,180,3.2,-999.0,98,-99.99,,,0.00,Acu-Link.com,2013-05-20 04:09:00,
2013-05-20 00:24:00,65.5,64.9,30.06,South,180,3.7,-999.0,98,-99.99,,,0.00,Acu-Link.com,2013-05-20 04:24:00,
2013-05-20 00:39:00,65.3,64.7,30.05,South,180,2.7,-999.0,98,-99.99,,,0.00,Acu-Link.com,2013-05-20 04:39:00,
2013-05-20 00:54:00,65.8,65.2,30.04,SSE,157,4.7,-999.0,98,-99.99,,,0.00,Acu-Link.com,2013-05-20 04:54:00,
2013-05-20 01:09:00,66.0,65.4,30.04,SW,225,4.2,-999.0,98,-99.99,,,0.00,Acu-Link.com,2013-05-20 05:09:00,
2013-05-20 01:24:00,66.2,65.6,30.03,SW,225,4.2,-999.0,98,-99.99,,,0.00,Acu-Link.com,2013-05-20 05:24:00,
2013-05-20 01:39:00,66.4,65.8,30.04,WSW,247,3.2,-999.0,98,-99.99,,,0.00,Acu-Link.com,2013-05-20 05:39:00,
2013-05-20 01:55:00,66.6,66.0,30.03,SE,135,3.2,-999.0,98,-99.99,,,0.00,Acu-Link.com,2013-05-20 05:55:00,
2013-05-20 02:10:00,66.6,66.0,30.02,SSW,202,3.7,-999.0,98,-99.99,,,0.00,Acu-Link.com,2013-05-20 06:10:00,
2013-05-20 02:25:00,66.9,66.3,30.02,South,180,2.2,-999.0,98,-99.99,,,0.00,Acu-Link.com,2013-05-20 06:25:00,
2013-05-20 02:40:00,67.1,66.5,30.01,SW,225,3.7,-999.0,98,-99.99,,,0.00,Acu-Link.com,2013-05-20 06:40:00,
2013-05-20 02:55:00,67.1,66.5,30.02,SSW,202,4.7,-999.0,98,-99.99,,,0.00,Acu-Link.com,2013-05-20 06:55:00,
2013-05-20 03:10:00,66.9,66.3,30.01,SW,225,1.7,-999.0,98,-99.99,,,0.00,Acu-Link.com,2013-05-20 07:10:00,
2013-05-20 03:25:00,66.9,66.3,30.00,South,180,2.2,-999.0,98,-99.99,,,0.00,Acu-Link.com,2013-05-20 07:25:00,
2013-05-20 03:40:00,66.7,66.1,29.99,South,180,2.2,-999.0,98,-99.99,,,0.00,Acu-Link.com,2013-05-20 07:40:00,
2013-05-20 03:55:00,66.7,66.1,30.00,West,270,2.2,-999.0,98,-99.99,,,0.00,Acu-Link.com,2013-05-20 07:55:00,
2013-05-20 04:11:00,66.7,66.1,30.00,SSE,157,3.2,-999.0,98,-99.99,,,0.00,Acu-Link.com,2013-05-20 08:11:00,
2013-05-20 04:26:00,66.6,66.0,29.99,SW,225,3.7,-999.0,98,-99.99,,,0.00,Acu-Link.com,2013-05-20 08:26:00,
2013-05-20 04:41:00,66.6,66.0,30.00,SSW,202,3.7,-999.0,98,-99.99,,,0.00,Acu-Link.com,2013-05-20 08:41:00,
2013-05-20 04:56:00,66.7,66.1,30.00,SSE,157,3.2,-999.0,98,-99.99,,,0.00,Acu-Link.com,2013-05-20 08:56:00,
2013-05-20 05:11:00,66.9,66.3,30.00,SW,225,5.3,-999.0,98,-99.99,,,0.00,Acu-Link.com,2013-05-20 09:11:00,
2013-05-20 05:26:00,66.4,65.8,30.00,SSE,157,4.7,-999.0,98,-99.99,,,0.00,Acu-Link.com,2013-05-20 09:26:00,
2013-05-20 05:41:00,66.2,65.6,30.01,South,180,3.2,-999.0,98,-99.99,,,0.00,Acu-Link.com,2013-05-20 09:41:00,
2013-05-20 05:57:00,66.2,65.6,30.01,South,180,4.2,-999.0,98,-99.99,,,0.00,Acu-Link.com,2013-05-20 09:57:00,
2013-05-20 06:12:00,66.2,65.6,30.01,South,180,3.2,-999.0,98,-99.99,,,0.00,Acu-Link.com,2013-05-20 10:12:00,
2013-05-20 06:27:00,66.6,66.0,30.01,SSE,157,4.2,-999.0,98,-99.99,,,0.00,Acu-Link.com,2013-05-20 10:27:00,
2013-05-20 06:42:00,66.9,66.3,30.01,SSW,202,3.7,-999.0,98,-99.99,,,0.00,Acu-Link.com,2013-05-20 10:42:00,
2013-05-20 06:57:00,67.3,66.7,30.02,SSW,202,5.3,-999.0,98,-99.99,,,0.00,Acu-Link.com,2013-05-20 10:57:00,
2013-05-20 07:12:00,67.6,67.0,30.01,SW,225,4.2,-999.0,98,-99.99,,,0.00,Acu-Link.com,2013-05-20 11:12:00,
2013-05-20 07:27:00,68.4,67.8,30.01,ESE,112,3.2,-999.0,98,-99.99,,,0.00,Acu-Link.com,2013-05-20 11:27:00,
2013-05-20 07:42:00,69.3,68.7,30.01,South,180,2.7,-999.0,98,-99.99,,,0.00,Acu-Link.com,2013-05-20 11:42:00,
2013-05-20 07:58:00,70.0,69.4,30.01,SSW,202,3.2,-999.0,98,-99.99,,,0.00,Acu-Link.com,2013-05-20 11:58:00,
2013-05-20 08:13:00,70.7,67.0,30.02,SSE,157,5.3,-999.0,88,-99.99,,,0.00,Acu-Link.com,2013-05-20 12:13:00,
2013-05-20 08:28:00,73.8,68.7,30.02,SSE,157,6.3,-999.0,84,-99.99,,,0.00,Acu-Link.com,2013-05-20 12:28:00,
2013-05-20 08:43:00,73.0,68.2,30.02,WNW,292,4.2,-999.0,85,-99.99,,,0.00,Acu-Link.com,2013-05-20 12:43:00,
2013-05-20 08:59:00,74.1,68.6,30.03,SE,135,3.2,-999.0,83,-99.99,,,0.00,Acu-Link.com,2013-05-20 12:59:00,
2013-05-20 09:14:00,75.9,68.5,30.03,SE,135,6.3,-999.0,78,-99.99,,,0.00,Acu-Link.com,2013-05-20 13:14:00,
2013-05-20 09:29:00,74.8,69.3,30.02,SW,225,4.2,-999.0,83,-99.99,,,0.00,Acu-Link.com,2013-05-20 13:29:00,
2013-05-20 09:45:00,75.9,68.9,30.01,SSE,157,2.2,-999.0,79,-99.99,,,0.00,Acu-Link.com,2013-05-20 13:45:00,
2013-05-20 10:00:00,77.7,70.3,30.01,SSW,202,5.3,-999.0,78,-99.99,,,0.00,Acu-Link.com,2013-05-20 14:00:00,
2013-05-20 10:15:00,78.3,70.1,30.01,SSW,202,4.2,-999.0,76,-99.99,,,0.00,Acu-Link.com,2013-05-20 14:15:00,
2013-05-20 10:30:00,79.0,70.4,30.00,South,180,5.8,-999.0,75,-99.99,,,0.00,Acu-Link.com,2013-05-20 14:30:00,
2013-05-20 10:45:00,79.5,70.1,30.00,SW,225,5.3,-999.0,73,-99.99,,,0.00,Acu-Link.com,2013-05-20 14:45:00,
2013-05-20 11:00:00,80.8,70.1,29.99,South,180,4.7,-999.0,70,-99.99,,,0.00,Acu-Link.com,2013-05-20 15:00:00,
2013-05-20 11:15:00,81.1,69.9,29.99,South,180,5.8,-999.0,69,-99.99,,,0.00,Acu-Link.com,2013-05-20 15:15:00,
2013-05-20 11:30:00,83.7,71.6,29.99,WSW,247,3.2,-999.0,67,-99.99,,,0.00,Acu-Link.com,2013-05-20 15:30:00,
2013-05-20 11:45:00,82.2,70.1,29.98,SW,225,2.2,-999.0,67,-99.99,,,0.00,Acu-Link.com,2013-05-20 15:45:00,
2013-05-20 12:01:00,80.6,70.7,29.98,WNW,292,4.2,-999.0,72,-99.99,,,0.00,Acu-Link.com,2013-05-20 16:01:00,
2013-05-20 12:16:00,82.6,70.5,29.97,South,180,5.8,-999.0,67,-99.99,,,0.00,Acu-Link.com,2013-05-20 16:16:00,
2013-05-20 12:31:00,80.1,68.6,29.96,WSW,247,4.7,-999.0,68,-99.99,,,0.00,Acu-Link.com,2013-05-20 16:31:00,
2013-05-20 12:46:00,83.5,71.8,29.96,NE,45,2.7,-999.0,68,-99.99,,,0.00,Acu-Link.com,2013-05-20 16:46:00,
2013-05-20 13:01:00,84.4,70.9,29.96,SSW,202,5.3,-999.0,64,-99.99,,,0.00,Acu-Link.com,2013-05-20 17:01:00,
2013-05-20 13:16:00,81.9,69.0,29.95,SSE,157,4.2,-999.0,65,-99.99,,,0.00,Acu-Link.com,2013-05-20 17:16:00,
2013-05-20 13:31:00,86.0,71.4,29.94,South,180,4.2,-999.0,62,-99.99,,,0.00,Acu-Link.com,2013-05-20 17:31:00,
2013-05-20 13:46:00,86.2,71.1,29.94,South,180,5.3,-999.0,61,-99.99,,,0.00,Acu-Link.com,2013-05-20 17:46:00,
2013-05-20 14:01:00,86.2,71.1,29.93,West,270,3.7,-999.0,61,-99.99,,,0.00,Acu-Link.com,2013-05-20 18:01:00,
2013-05-20 14:17:00,83.7,70.7,29.93,South,180,4.2,-999.0,65,-99.99,,,0.00,Acu-Link.com,2013-05-20 18:17:00,
2013-05-20 14:32:00,86.9,71.8,29.93,South,180,5.8,-999.0,61,-99.99,,,0.00,Acu-Link.com,2013-05-20 18:32:00,
2013-05-20 14:47:00,86.9,70.8,29.92,SSW,202,2.7,-999.0,59,-99.99,,,0.00,Acu-Link.com,2013-05-20 18:47:00,
2013-05-20 15:02:00,82.4,67.6,29.92,South,180,5.8,-999.0,61,-99.99,,,0.00,Acu-Link.com,2013-05-20 19:02:00,
2013-05-20 15:17:00,85.6,69.6,29.92,SSW,202,4.7,-999.0,59,-99.99,,,0.00,Acu-Link.com,2013-05-20 19:17:00,
2013-05-20 15:32:00,86.7,69.6,29.91,NW,315,4.2,-999.0,57,-99.99,,,0.00,Acu-Link.com,2013-05-20 19:32:00,
2013-05-20 15:47:00,87.1,70.5,29.91,South,180,3.7,-999.0,58,-99.99,,,0.00,Acu-Link.com,2013-05-20 19:47:00,
2013-05-20 16:02:00,86.7,69.6,29.90,SSW,202,6.3,-999.0,57,-99.99,,,0.00,Acu-Link.com,2013-05-20 20:02:00,
2013-05-20 16:17:00,84.4,67.5,29.89,SSW,202,5.3,-999.0,57,-99.99,,,0.00,Acu-Link.com,2013-05-20 20:17:00,
2013-05-20 16:33:00,88.3,70.1,29.90,East,90,4.7,-999.0,55,-99.99,,,0.00,Acu-Link.com,2013-05-20 20:33:00,
2013-05-20 16:48:00,85.6,67.5,29.89,SSE,157,6.8,-999.0,55,-99.99,,,0.00,Acu-Link.com,2013-05-20 20:48:00,
2013-05-20 17:03:00,83.7,67.3,29.88,South,180,4.7,-999.0,58,-99.99,,,0.00,Acu-Link.com,2013-05-20 21:03:00,
2013-05-20 17:18:00,85.6,68.1,29.89,SE,135,3.7,-999.0,56,-99.99,,,0.00,Acu-Link.com,2013-05-20 21:18:00,
2013-05-20 17:33:00,86.0,68.4,29.88,South,180,2.7,-999.0,56,-99.99,,,0.00,Acu-Link.com,2013-05-20 21:33:00,
2013-05-20 17:48:00,82.2,66.4,29.87,SSW,202,4.2,-999.0,59,-99.99,,,0.00,Acu-Link.com,2013-05-20 21:48:00,
2013-05-20 18:03:00,81.7,66.9,29.87,South,180,4.7,-999.0,61,-99.99,,,0.00,Acu-Link.com,2013-05-20 22:03:00,
2013-05-20 18:18:00,81.9,66.6,29.87,SSW,202,3.2,-999.0,60,-99.99,,,0.00,Acu-Link.com,2013-05-20 22:18:00,
2013-05-20 18:33:00,83.7,67.3,29.87,South,180,3.7,-999.0,58,-99.99,,,0.00,Acu-Link.com,2013-05-20 22:33:00,
2013-05-20 18:49:00,81.1,69.1,29.88,SSW,202,6.3,-999.0,67,-99.99,,,0.00,Acu-Link.com,2013-05-20 22:49:00,
2013-05-20 19:04:00,79.0,68.4,29.89,SSW,202,6.8,-999.0,70,-99.99,,,0.00,Acu-Link.com,2013-05-20 23:04:00,
2013-05-20 19:19:00,77.7,68.3,29.88,SW,225,3.2,-999.0,73,-99.99,,,0.00,Acu-Link.com,2013-05-20 23:19:00,
2013-05-20 19:34:00,77.0,68.1,29.89,South,180,4.7,-999.0,74,-99.99,,,0.00,Acu-Link.com,2013-05-20 23:34:00,
2013-05-20 19:49:00,76.3,67.8,29.89,South,180,5.3,-999.0,75,-99.99,,,0.00,Acu-Link.com,2013-05-20 23:49:00,
2013-05-20 20:04:00,75.9,67.4,29.90,South,180,4.7,-999.0,75,-99.99,,,0.00,Acu-Link.com,2013-05-21 00:04:00,
2013-05-20 20:19:00,75.2,67.1,29.90,SSW,202,3.2,-999.0,76,-99.99,,,0.00,Acu-Link.com,2013-05-21 00:19:00,
2013-05-20 20:34:00,74.5,67.2,29.90,SSE,157,3.7,-999.0,78,-99.99,,,0.00,Acu-Link.com,2013-05-21 00:34:00,
2013-05-20 20:49:00,73.8,66.5,29.90,South,180,3.2,-999.0,78,-99.99,,,0.00,Acu-Link.com,2013-05-21 00:49:00,
2013-05-20 21:05:00,73.2,65.9,29.90,South,180,5.8,-999.0,78,-99.99,,,0.00,Acu-Link.com,2013-05-21 01:05:00,
2013-05-20 21:20:00,73.0,65.7,29.90,South,180,4.2,-999.0,78,-99.99,,,0.00,Acu-Link.com,2013-05-21 01:20:00,
2013-05-20 21:35:00,73.0,65.7,29.90,SE,135,3.7,-999.0,78,-99.99,,,0.00,Acu-Link.com,2013-05-21 01:35:00,
2013-05-20 21:50:00,72.5,65.2,29.91,South,180,6.8,-999.0,78,-99.99,,,0.00,Acu-Link.com,2013-05-21 01:50:00,
2013-05-20 22:05:00,72.1,65.2,29.90,South,180,3.2,-999.0,79,-99.99,,,0.00,Acu-Link.com,2013-05-21 02:05:00,
2013-05-20 22:20:00,71.4,65.3,29.90,West,270,3.2,-999.0,81,-99.99,,,0.00,Acu-Link.com,2013-05-21 02:20:00,
2013-05-20 22:35:00,70.5,65.1,29.91,SSW,202,2.7,-999.0,83,-99.99,,,0.00,Acu-Link.com,2013-05-21 02:35:00,
2013-05-20 22:50:00,70.3,65.2,29.91,SSW,202,2.7,-999.0,84,-99.99,,,0.00,Acu-Link.com,2013-05-21 02:50:00,
2013-05-20 23:05:00,70.0,65.6,29.91,SW,225,3.2,-999.0,86,-99.99,,,0.00,Acu-Link.com,2013-05-21 03:05:00,
2013-05-20 23:21:00,69.8,65.7,29.91,SSE,157,3.7,-999.0,87,-99.99,,,0.00,Acu-Link.com,2013-05-21 03:21:00,
2013-05-20 23:51:00,69.3,65.6,29.91,South,180,2.7,-999.0,88,-99.99,,,0.00,Acu-Link.com,2013-05-21 03:51:00,